Time;durP1;ratioP1;P1;durP2;ratioP2;P2;SDS_P1;SDS_P2;PMS_P1;PMS_P2;Temp;Humidity;BMP_temperature;BMP_pressure;BME280_temperature;BME280_humidity;BME280_pressure;Samples;Min_cycle;Max_cycle;Signal;HPM_P1;HPM_P2
2022/05/21 00:00:12;;;;;;;8.77;2.30;;;;;;;;;;5030435;28;20438;-64
2022/05/21 00:02:37;;;;;;;2.90;1.85;;;;;;;;;;5030556;28;20342;-65
2022/05/21 00:05:04;;;;;;;2.65;2.03;;;;;;;;;;5030571;28;20342;-64
2022/05/21 00:07:29;;;;;;;5.63;1.85;;;;;;;;;;5031975;28;20388;-65
2022/05/21 00:09:54;;;;;;;4.97;2.05;;;;;;;;;;5029836;28;20355;-64
2022/05/21 00:12:20;;;;;;;3.63;1.90;;;;;;;;;;5029727;28;20431;-65
2022/05/21 00:14:45;;;;;;;3.88;1.70;;;;;;;;;;5029986;28;20046;-64
2022/05/21 00:17:11;;;;;;;2.58;1.85;;;;;;;;;;5030078;28;20375;-64
2022/05/21 00:19:36;;;;;;;3.08;2.08;;;;;;;;;;5030215;28;20469;-64
2022/05/21 00:22:01;;;;;;;5.07;2.00;;;;;;;;;;5029987;28;20458;-65
2022/05/21 00:24:28;;;;;;;2.67;1.73;;;;;;;;;;5031685;28;20354;-64
2022/05/21 00:26:53;;;;;;;4.28;1.80;;;;;;;;;;5031014;28;20535;-64
2022/05/21 00:29:20;;;;;;;2.10;1.67;;;;;;;;;;5029896;28;20505;-64
2022/05/21 00:31:46;;;;;;;3.03;1.88;;;;;;;;;;5030530;28;20419;-64
2022/05/21 00:34:11;;;;;;;3.30;1.50;;;;;;;;;;5029928;28;20378;-64
2022/05/21 00:36:37;;;;;;;3.22;1.77;;;;;;;;;;5029973;28;20055;-64
2022/05/21 00:39:03;;;;;;;1.83;1.50;;;;;;;;;;5029963;28;20028;-64
2022/05/21 00:41:28;;;;;;;2.95;1.88;;;;;;;;;;5029723;28;20363;-64
2022/05/21 00:43:58;;;;;;;5.72;2.10;;;;;;;;;;5030266;28;20381;-64
2022/05/21 00:46:29;;;;;;;3.58;1.70;;;;;;;;;;5011124;28;20050;-64
2022/05/21 00:49:20;;;;;;;3.65;1.90;;;;;;;;;;5029427;28;20425;-65
2022/05/21 00:51:53;;;;;;;3.63;1.65;;;;;;;;;;5029219;28;20351;-64
2022/05/21 00:54:21;;;;;;;4.05;1.98;;;;;;;;;;5029876;28;20415;-63
2022/05/21 00:56:58;;;;;;;1.65;1.45;;;;;;;;;;5011516;28;20469;-65
2022/05/21 01:02:09;;;;;;;2.13;1.60;;;;;;;;;;5029959;28;20449;-65
2022/05/21 01:04:36;;;;;;;6.32;1.75;;;;;;;;;;5030674;28;20425;-64
2022/05/21 01:07:02;;;;;;;5.72;1.52;;;;;;;;;;5028963;28;20351;-65
2022/05/21 01:09:28;;;;;;;3.08;1.40;;;;;;;;;;5029614;28;20466;-64
2022/05/21 01:11:55;;;;;;;3.45;1.88;;;;;;;;;;5029694;28;20395;-65
2022/05/21 01:14:21;;;;;;;3.10;1.70;;;;;;;;;;5011386;28;20400;-65
2022/05/21 01:16:48;;;;;;;2.25;1.48;;;;;;;;;;5029203;28;20463;-64
2022/05/21 01:19:14;;;;;;;6.25;1.50;;;;;;;;;;5029366;28;20347;-65
2022/05/21 01:21:39;;;;;;;2.33;1.63;;;;;;;;;;5029482;28;20043;-65
2022/05/21 01:24:06;;;;;;;6.70;1.90;;;;;;;;;;5028210;28;20369;-64
2022/05/21 01:26:33;;;;;;;2.85;1.50;;;;;;;;;;5028843;28;20411;-63
2022/05/21 01:28:59;;;;;;;7.10;1.77;;;;;;;;;;5028799;28;20416;-65
2022/05/21 01:31:25;;;;;;;2.53;1.60;;;;;;;;;;5011269;28;20446;-64
2022/05/21 01:33:50;;;;;;;4.07;1.60;;;;;;;;;;5028666;28;20467;-64
2022/05/21 01:36:17;;;;;;;5.32;1.60;;;;;;;;;;5028982;28;20385;-65
2022/05/21 01:38:43;;;;;;;2.17;1.30;;;;;;;;;;5029231;28;20439;-64
2022/05/21 01:41:09;;;;;;;1.85;1.40;;;;;;;;;;5028862;28;20384;-65
2022/05/21 01:46:19;;;;;;;3.67;1.67;;;;;;;;;;5020519;28;20430;-64
2022/05/21 01:48:45;;;;;;;4.25;1.45;;;;;;;;;;5009270;28;20423;-64
2022/05/21 01:51:10;;;;;;;5.78;1.25;;;;;;;;;;5010014;28;20379;-64
2022/05/21 01:53:37;;;;;;;3.33;1.48;;;;;;;;;;5009147;28;20451;-64
2022/05/21 01:56:03;;;;;;;3.65;1.95;;;;;;;;;;5008935;28;20481;-64
2022/05/21 01:58:29;;;;;;;2.47;1.25;;;;;;;;;;5008717;28;20029;-65
2022/05/21 02:00:57;;;;;;;2.17;1.73;;;;;;;;;;5008931;28;20428;-65
2022/05/21 02:03:23;;;;;;;5.60;1.48;;;;;;;;;;5008926;28;20060;-64
2022/05/21 02:05:49;;;;;;;2.67;1.10;;;;;;;;;;5009100;28;20029;-64
2022/05/21 02:08:15;;;;;;;1.88;1.15;;;;;;;;;;5008512;28;20443;-65
2022/05/21 02:10:42;;;;;;;3.50;1.40;;;;;;;;;;5008964;28;20325;-64
2022/05/21 02:13:12;;;;;;;4.68;1.40;;;;;;;;;;5008846;28;20397;-65
2022/05/21 02:15:37;;;;;;;1.75;1.30;;;;;;;;;;5008728;28;20025;-64
2022/05/21 02:18:03;;;;;;;1.55;1.40;;;;;;;;;;5008470;28;20028;-64
2022/05/21 02:20:28;;;;;;;2.30;1.30;;;;;;;;;;5008450;28;20020;-65
2022/05/21 02:22:53;;;;;;;3.95;1.50;;;;;;;;;;5009822;28;20399;-64
2022/05/21 02:25:19;;;;;;;5.30;1.70;;;;;;;;;;5008826;28;20454;-64
2022/05/21 02:27:44;;;;;;;3.08;1.40;;;;;;;;;;5010245;28;20400;-64
2022/05/21 02:30:10;;;;;;;7.78;1.70;;;;;;;;;;5007977;28;20324;-64
2022/05/21 02:32:36;;;;;;;3.30;1.55;;;;;;;;;;5008320;28;20440;-65
2022/05/21 02:35:01;;;;;;;3.15;1.60;;;;;;;;;;5009866;28;20436;-63
2022/05/21 02:40:10;;;;;;;4.45;1.30;;;;;;;;;;5013245;28;20351;-65
2022/05/21 02:42:45;;;;;;;3.17;1.45;;;;;;;;;;5012355;28;20493;-64
2022/05/21 02:45:14;;;;;;;2.95;1.55;;;;;;;;;;5012093;28;20121;-64
2022/05/21 02:47:40;;;;;;;5.88;1.38;;;;;;;;;;5011485;28;20375;-64
2022/05/21 02:50:08;;;;;;;3.58;1.75;;;;;;;;;;5012106;28;20029;-64
2022/05/21 02:52:33;;;;;;;6.43;1.63;;;;;;;;;;5012038;28;20436;-64
2022/05/21 02:54:59;;;;;;;4.72;1.73;;;;;;;;;;5012336;28;20336;-64
2022/05/21 02:57:25;;;;;;;2.97;1.35;;;;;;;;;;5012502;28;20451;-64
2022/05/21 02:59:50;;;;;;;2.58;1.52;;;;;;;;;;5011968;28;20482;-64
2022/05/21 03:02:16;;;;;;;2.83;1.35;;;;;;;;;;5011539;28;20112;-65
2022/05/21 03:04:42;;;;;;;4.45;1.67;;;;;;;;;;5012724;28;20090;-65
2022/05/21 03:07:07;;;;;;;3.40;1.63;;;;;;;;;;5013804;28;20700;-64
2022/05/21 03:12:16;;;;;;;3.17;1.58;;;;;;;;;;5012029;28;20498;-64
2022/05/21 03:14:41;;;;;;;3.13;1.30;;;;;;;;;;5011825;28;20499;-63
2022/05/21 03:17:07;;;;;;;1.67;1.10;;;;;;;;;;5011849;28;20472;-65
2022/05/21 03:19:33;;;;;;;4.43;1.23;;;;;;;;;;5011684;28;20036;-64
2022/05/21 03:22:01;;;;;;;3.30;1.63;;;;;;;;;;5012173;28;20482;-64
2022/05/21 03:24:27;;;;;;;3.78;1.95;;;;;;;;;;5011850;28;20428;-63
2022/05/21 03:26:52;;;;;;;7.63;1.75;;;;;;;;;;5011194;28;20029;-65
2022/05/21 03:29:18;;;;;;;6.20;1.42;;;;;;;;;;5011078;28;20051;-63
2022/05/21 03:31:43;;;;;;;2.55;1.50;;;;;;;;;;5010985;28;20546;-65
2022/05/21 03:34:08;;;;;;;4.40;1.60;;;;;;;;;;5010876;28;20498;-64
2022/05/21 03:36:34;;;;;;;1.90;1.33;;;;;;;;;;5011578;28;20419;-64
2022/05/21 03:38:59;;;;;;;2.67;1.30;;;;;;;;;;5010820;28;20325;-64
2022/05/21 03:41:25;;;;;;;1.85;1.65;;;;;;;;;;5010739;28;20146;-66
2022/05/21 03:43:52;;;;;;;3.13;1.30;;;;;;;;;;5011185;28;20024;-64
2022/05/21 03:46:17;;;;;;;6.20;1.67;;;;;;;;;;5011772;28;20358;-64
2022/05/21 03:48:43;;;;;;;3.88;1.88;;;;;;;;;;5010751;28;20427;-65
2022/05/21 03:51:08;;;;;;;3.40;1.40;;;;;;;;;;5010792;28;20420;-65
2022/05/21 03:53:33;;;;;;;2.45;1.30;;;;;;;;;;5010726;28;20405;-65
2022/05/21 03:55:59;;;;;;;4.03;1.30;;;;;;;;;;5011299;28;20436;-65
2022/05/21 03:58:24;;;;;;;5.00;1.38;;;;;;;;;;4992514;28;20316;-65
2022/05/21 04:00:50;;;;;;;2.72;1.25;;;;;;;;;;4993529;28;20431;-64
2022/05/21 04:03:15;;;;;;;2.33;1.10;;;;;;;;;;5011063;28;20323;-66
2022/05/21 04:05:41;;;;;;;2.80;1.50;;;;;;;;;;5010201;28;20375;-64
2022/05/21 04:08:06;;;;;;;2.83;1.42;;;;;;;;;;5010053;28;20405;-67
2022/05/21 04:10:32;;;;;;;1.42;1.25;;;;;;;;;;5010128;28;20505;-63
2022/05/21 04:12:57;;;;;;;3.35;1.75;;;;;;;;;;5010301;28;20432;-63
2022/05/21 04:15:22;;;;;;;3.05;1.30;;;;;;;;;;5010477;28;20443;-63
2022/05/21 04:17:48;;;;;;;6.90;1.60;;;;;;;;;;5011421;28;20434;-65
2022/05/21 04:20:15;;;;;;;5.07;1.60;;;;;;;;;;4992588;28;20418;-65
2022/05/21 04:22:41;;;;;;;2.33;1.30;;;;;;;;;;5010187;28;20525;-64
2022/05/21 04:25:08;;;;;;;2.65;1.42;;;;;;;;;;5011011;28;20376;-65
2022/05/21 04:27:34;;;;;;;6.57;1.90;;;;;;;;;;5009975;28;20420;-64
2022/05/21 04:30:00;;;;;;;5.40;1.67;;;;;;;;;;5009927;28;20153;-65
2022/05/21 04:32:26;;;;;;;3.20;1.45;;;;;;;;;;5010041;28;20420;-64
2022/05/21 04:34:51;;;;;;;3.17;1.70;;;;;;;;;;5010328;28;20574;-63
2022/05/21 04:37:16;;;;;;;5.20;1.40;;;;;;;;;;5009711;28;20337;-64
2022/05/21 04:39:41;;;;;;;6.05;1.77;;;;;;;;;;5009670;28;20370;-65
2022/05/21 04:42:07;;;;;;;4.78;1.50;;;;;;;;;;5009548;28;20449;-63
2022/05/21 04:44:34;;;;;;;4.40;1.48;;;;;;;;;;5010063;28;20459;-65
2022/05/21 04:47:00;;;;;;;1.83;1.10;;;;;;;;;;5009303;28;20397;-64
2022/05/21 04:49:25;;;;;;;4.90;1.35;;;;;;;;;;5009744;28;20574;-65
2022/05/21 04:51:51;;;;;;;5.18;1.80;;;;;;;;;;5010668;28;20339;-63
2022/05/21 04:54:16;;;;;;;3.97;1.65;;;;;;;;;;5009713;28;20440;-64
2022/05/21 04:56:41;;;;;;;1.92;1.35;;;;;;;;;;5009788;28;20351;-66
2022/05/21 04:59:08;;;;;;;1.60;1.15;;;;;;;;;;5009442;28;20448;-64
2022/05/21 05:01:33;;;;;;;3.78;1.52;;;;;;;;;;5009239;28;20516;-64
2022/05/21 05:03:59;;;;;;;3.25;1.20;;;;;;;;;;5009405;28;20452;-64
2022/05/21 05:06:24;;;;;;;4.90;1.98;;;;;;;;;;5009051;28;20375;-64
2022/05/21 05:08:49;;;;;;;2.75;1.20;;;;;;;;;;5008913;28;20493;-63
2022/05/21 05:11:16;;;;;;;2.25;1.40;;;;;;;;;;5008973;28;20051;-65
2022/05/21 05:13:41;;;;;;;2.00;1.17;;;;;;;;;;5009411;28;20352;-65
2022/05/21 05:16:06;;;;;;;2.33;1.20;;;;;;;;;;5010650;28;20442;-65
2022/05/21 05:18:32;;;;;;;2.20;1.38;;;;;;;;;;5008966;28;20408;-64
2022/05/21 05:20:57;;;;;;;3.08;1.20;;;;;;;;;;5008968;28;20510;-66
2022/05/21 05:23:22;;;;;;;2.05;1.20;;;;;;;;;;5009752;28;20515;-65
2022/05/21 05:25:48;;;;;;;1.77;1.25;;;;;;;;;;4990895;28;20463;-65
2022/05/21 05:28:19;;;;;;;2.38;1.60;;;;;;;;;;5009223;28;20438;-63
2022/05/21 05:30:45;;;;;;;2.53;1.38;;;;;;;;;;4992095;28;20030;-64
2022/05/21 05:33:10;;;;;;;3.08;1.20;;;;;;;;;;5008672;28;20028;-65
2022/05/21 05:35:36;;;;;;;2.38;1.30;;;;;;;;;;5008865;28;20051;-64
2022/05/21 05:38:20;;;;;;;1.63;1.10;;;;;;;;;;5009922;28;20416;-65
2022/05/21 05:40:47;;;;;;;3.28;1.42;;;;;;;;;;5008821;28;20494;-64
2022/05/21 05:43:15;;;;;;;2.50;1.40;;;;;;;;;;5010792;28;20416;-65
2022/05/21 05:45:41;;;;;;;2.80;1.30;;;;;;;;;;5008946;28;20455;-63
2022/05/21 05:48:06;;;;;;;3.33;1.70;;;;;;;;;;5008918;28;20440;-64
2022/05/21 05:50:32;;;;;;;1.73;1.10;;;;;;;;;;5008711;28;20455;-64
2022/05/21 05:53:05;;;;;;;2.17;1.10;;;;;;;;;;5008959;28;20450;-64
2022/05/21 05:55:31;;;;;;;2.67;1.13;;;;;;;;;;5009844;28;20317;-65
2022/05/21 05:57:57;;;;;;;3.88;1.60;;;;;;;;;;5010361;28;20595;-65
2022/05/21 06:00:22;;;;;;;3.00;1.15;;;;;;;;;;4990878;28;20353;-65
2022/05/21 06:03:01;;;;;;;2.00;1.40;;;;;;;;;;5008588;28;20470;-63
2022/05/21 06:05:29;;;;;;;2.22;1.25;;;;;;;;;;5008802;28;20442;-65
2022/05/21 06:07:58;;;;;;;3.92;1.50;;;;;;;;;;5008494;28;20177;-64
2022/05/21 06:10:35;;;;;;;2.90;1.10;;;;;;;;;;5010547;28;20426;-65
2022/05/21 06:13:01;;;;;;;4.25;1.25;;;;;;;;;;5012487;28;20616;-65
2022/05/21 06:15:27;;;;;;;4.15;1.35;;;;;;;;;;5013749;28;20541;-65
2022/05/21 06:17:53;;;;;;;4.45;1.52;;;;;;;;;;5012647;28;20502;-65
2022/05/21 06:20:21;;;;;;;2.00;1.33;;;;;;;;;;5012346;28;20497;-64
2022/05/21 06:22:46;;;;;;;3.20;1.73;;;;;;;;;;5012813;28;20497;-64
2022/05/21 06:25:17;;;;;;;2.15;1.55;;;;;;;;;;5012086;28;20452;-65
2022/05/21 06:27:50;;;;;;;4.60;1.13;;;;;;;;;;5012253;28;20317;-64
2022/05/21 06:30:16;;;;;;;2.30;1.20;;;;;;;;;;5012478;28;20051;-64
2022/05/21 06:32:42;;;;;;;5.38;1.20;;;;;;;;;;5012011;28;20371;-65
2022/05/21 06:35:08;;;;;;;2.75;1.10;;;;;;;;;;5013011;28;20390;-64
2022/05/21 06:37:33;;;;;;;1.75;1.10;;;;;;;;;;5013156;28;20055;-64
2022/05/21 06:39:59;;;;;;;2.00;1.27;;;;;;;;;;5011976;28;20028;-65
2022/05/21 06:42:24;;;;;;;2.28;1.00;;;;;;;;;;5012740;28;20506;-65
2022/05/21 06:44:52;;;;;;;5.18;1.52;;;;;;;;;;5012093;28;20444;-63
2022/05/21 06:47:18;;;;;;;1.40;1.00;;;;;;;;;;5012884;28;20025;-64
2022/05/21 06:49:43;;;;;;;2.72;1.00;;;;;;;;;;5011954;28;20709;-66
2022/05/21 06:52:09;;;;;;;2.58;1.00;;;;;;;;;;5014158;28;20464;-65
2022/05/21 06:54:34;;;;;;;1.70;1.00;;;;;;;;;;5011934;28;20037;-63
2022/05/21 06:56:59;;;;;;;1.17;0.93;;;;;;;;;;5011871;28;20415;-66
2022/05/21 06:59:25;;;;;;;1.63;1.23;;;;;;;;;;5011913;28;20428;-64
2022/05/21 07:01:50;;;;;;;2.40;1.27;;;;;;;;;;5011944;28;20446;-64
2022/05/21 07:04:16;;;;;;;6.53;1.45;;;;;;;;;;5011338;28;20467;-65
2022/05/21 07:09:27;;;;;;;2.38;1.20;;;;;;;;;;5011802;28;20059;-64
2022/05/21 07:11:52;;;;;;;1.00;0.90;;;;;;;;;;4993541;28;20436;-64
2022/05/21 07:14:18;;;;;;;2.15;1.10;;;;;;;;;;5011680;28;20478;-64
2022/05/21 07:16:44;;;;;;;2.33;0.95;;;;;;;;;;5011423;28;20448;-65
2022/05/21 07:19:09;;;;;;;4.68;1.10;;;;;;;;;;5011802;28;20412;-66
2022/05/21 07:21:35;;;;;;;4.45;1.00;;;;;;;;;;5010954;28;20493;-64
2022/05/21 07:24:00;;;;;;;3.13;1.02;;;;;;;;;;5012311;28;20528;-63
2022/05/21 07:26:26;;;;;;;3.30;1.13;;;;;;;;;;5011335;28;20024;-65
2022/05/21 07:28:51;;;;;;;1.75;0.88;;;;;;;;;;5011459;28;20503;-65
2022/05/21 07:31:17;;;;;;;1.35;0.88;;;;;;;;;;5010928;28;20363;-63
2022/05/21 07:33:43;;;;;;;1.52;0.90;;;;;;;;;;5011547;28;20435;-65
2022/05/21 07:36:09;;;;;;;1.58;0.90;;;;;;;;;;5010973;28;20032;-64
2022/05/21 07:38:34;;;;;;;1.48;0.90;;;;;;;;;;5011062;28;20454;-66
2022/05/21 07:41:00;;;;;;;1.15;0.82;;;;;;;;;;5010962;28;20447;-65
2022/05/21 07:43:30;;;;;;;2.22;1.00;;;;;;;;;;5011044;28;20397;-64
2022/05/21 07:45:57;;;;;;;2.55;1.00;;;;;;;;;;5011361;28;20234;-65
2022/05/21 07:48:23;;;;;;;1.60;0.75;;;;;;;;;;5010764;28;20438;-65
2022/05/21 07:50:52;;;;;;;7.03;1.10;;;;;;;;;;5008999;28;20321;-64
2022/05/21 07:53:27;;;;;;;1.48;0.90;;;;;;;;;;5010942;28;20444;-65
2022/05/21 07:55:53;;;;;;;5.65;0.70;;;;;;;;;;5010827;28;20329;-65
2022/05/21 07:58:20;;;;;;;2.60;0.70;;;;;;;;;;5011452;28;20415;-64
2022/05/21 08:00:46;;;;;;;1.75;0.65;;;;;;;;;;5011010;28;20064;-65
2022/05/21 08:03:12;;;;;;;3.00;0.90;;;;;;;;;;5010351;28;20519;-65
2022/05/21 08:05:38;;;;;;;0.77;0.70;;;;;;;;;;5011593;28;20478;-65
2022/05/21 08:08:04;;;;;;;3.58;0.70;;;;;;;;;;5010651;28;20320;-64
2022/05/21 08:10:30;;;;;;;0.57;0.52;;;;;;;;;;5009885;28;20351;-64
2022/05/21 08:12:56;;;;;;;3.70;0.80;;;;;;;;;;5010810;28;20305;-64
2022/05/21 08:15:22;;;;;;;0.73;0.60;;;;;;;;;;5010400;28;20432;-64
2022/05/21 08:17:47;;;;;;;1.05;0.75;;;;;;;;;;5010283;28;20554;-65
2022/05/21 08:20:14;;;;;;;1.02;0.60;;;;;;;;;;5011724;28;20371;-64
2022/05/21 08:28:08;;;;;;;4.15;0.55;;;;;;;;;;5011446;28;20328;-64
2022/05/21 08:30:34;;;;;;;1.10;0.77;;;;;;;;;;4991866;28;20359;-66
2022/05/21 08:33:07;;;;;;;1.40;0.60;;;;;;;;;;5010507;28;20383;-65
2022/05/21 08:35:33;;;;;;;0.52;0.50;;;;;;;;;;5009841;28;20381;-65
2022/05/21 08:37:58;;;;;;;2.75;0.80;;;;;;;;;;5008782;28;20424;-66
2022/05/21 08:40:45;;;;;;;2.47;0.65;;;;;;;;;;5011392;28;20359;-64
2022/05/21 08:43:21;;;;;;;1.25;0.50;;;;;;;;;;5010657;28;20416;-64
2022/05/21 08:45:59;;;;;;;2.60;0.65;;;;;;;;;;5009898;28;20091;-64
2022/05/21 08:48:24;;;;;;;0.98;0.63;;;;;;;;;;5009817;28;20443;-64
2022/05/21 08:50:53;;;;;;;2.58;0.68;;;;;;;;;;4992199;28;20536;-64
2022/05/21 08:53:22;;;;;;;0.70;0.50;;;;;;;;;;5011660;28;20060;-64
2022/05/21 08:55:48;;;;;;;;;;;;;;;;;;4992512;28;20400;-65
2022/05/21 08:58:16;;;;;;;2.90;0.38;;;;;;;;;;5010024;28;20267;-65
2022/05/21 09:00:44;;;;;;;5.77;0.63;;;;;;;;;;5009335;28;20383;-64
2022/05/21 09:03:15;;;;;;;0.57;0.57;;;;;;;;;;5009694;28;20450;-63
2022/05/21 09:05:45;;;;;;;2.38;0.57;;;;;;;;;;4999604;28;20318;-65
2022/05/21 09:08:30;;;;;;;1.45;0.45;;;;;;;;;;5007233;28;20056;-65
2022/05/21 09:11:03;;;;;;;1.65;0.50;;;;;;;;;;4968344;28;20444;-64
2022/05/21 09:13:35;;;;;;;1.02;0.50;;;;;;;;;;4969934;28;20468;-64
2022/05/21 09:18:47;;;;;;;2.15;0.50;;;;;;;;;;4970173;28;20064;-64
2022/05/21 09:21:17;;;;;;;4.63;1.02;;;;;;;;;;4970384;28;20441;-64
2022/05/21 09:23:50;;;;;;;0.60;0.47;;;;;;;;;;4970386;28;20444;-64
2022/05/21 09:26:16;;;;;;;0.73;0.35;;;;;;;;;;4969840;28;20495;-64
2022/05/21 09:28:42;;;;;;;2.45;0.60;;;;;;;;;;4967920;28;20376;-64
2022/05/21 09:31:08;;;;;;;1.45;0.57;;;;;;;;;;4970222;28;20334;-64
2022/05/21 09:33:41;;;;;;;1.33;0.57;;;;;;;;;;4969338;28;20397;-64
2022/05/21 09:36:07;;;;;;;1.33;0.85;;;;;;;;;;4969610;28;20387;-65
2022/05/21 09:38:35;;;;;;;4.20;0.50;;;;;;;;;;4969621;28;20425;-64
2022/05/21 09:41:04;;;;;;;;;;;;;;;;;;4970073;28;20376;-64
2022/05/21 09:46:23;;;;;;;1.60;0.57;;;;;;;;;;4968868;28;20344;-65
2022/05/21 09:48:51;;;;;;;0.32;0.30;;;;;;;;;;4970792;28;20505;-67
2022/05/21 09:51:21;;;;;;;0.43;0.35;;;;;;;;;;4969009;28;20445;-64
2022/05/21 09:53:47;;;;;;;9.43;1.00;;;;;;;;;;4969892;28;20567;-64
2022/05/21 09:56:32;;;;;;;1.27;0.35;;;;;;;;;;4967859;28;20531;-63
2022/05/21 09:59:16;;;;;;;0.90;0.40;;;;;;;;;;4970346;28;20391;-63
2022/05/21 10:01:50;;;;;;;2.63;0.50;;;;;;;;;;4970118;28;20463;-65
2022/05/21 10:04:20;;;;;;;2.47;0.95;;;;;;;;;;4969469;28;20407;-64
2022/05/21 10:06:51;;;;;;;0.30;0.30;;;;;;;;;;4967864;28;20510;-65
2022/05/21 10:12:34;;;;;;;1.75;0.57;;;;;;;;;;5009320;28;20105;-64
2022/05/21 10:15:23;;;;;;;0.30;0.30;;;;;;;;;;5008847;28;20412;-64
2022/05/21 10:17:59;;;;;;;1.85;0.52;;;;;;;;;;4990787;28;20047;-64
2022/05/21 10:20:34;;;;;;;4.03;0.75;;;;;;;;;;5008939;28;20501;-64
2022/05/21 10:23:48;;;;;;;5.05;0.68;;;;;;;;;;5008337;28;20036;-65
2022/05/21 10:26:31;;;;;;;0.28;0.28;;;;;;;;;;5005944;28;20041;-64
2022/05/21 10:29:01;;;;;;;0.95;0.50;;;;;;;;;;5008787;28;20432;-64
2022/05/21 10:31:39;;;;;;;2.33;0.40;;;;;;;;;;5008491;28;20118;-64
2022/05/21 10:34:16;;;;;;;0.45;0.40;;;;;;;;;;5008469;28;20516;-65
2022/05/21 10:36:57;;;;;;;1.38;0.40;;;;;;;;;;5008273;28;21250;-64
2022/05/21 10:39:52;;;;;;;0.32;0.32;;;;;;;;;;4990619;28;20466;-65
2022/05/21 10:42:18;;;;;;;2.47;0.38;;;;;;;;;;5008655;28;20392;-64
2022/05/21 10:45:05;;;;;;;0.50;0.40;;;;;;;;;;5008540;28;20367;-64
2022/05/21 10:48:12;;;;;;;0.75;0.43;;;;;;;;;;5009622;28;20343;-65
2022/05/21 10:50:54;;;;;;;4.43;0.40;;;;;;;;;;4968839;28;20336;-64
2022/05/21 10:53:26;;;;;;;1.40;0.43;;;;;;;;;;4990017;28;20413;-64
2022/05/21 10:56:38;;;;;;;2.25;1.00;;;;;;;;;;5010003;28;20386;-65
2022/05/21 10:59:25;;;;;;;0.50;0.45;;;;;;;;;;5011576;28;20324;-64
2022/05/21 11:02:06;;;;;;;2.63;0.68;;;;;;;;;;4993707;28;20451;-65
2022/05/21 11:04:56;;;;;;;0.57;0.40;;;;;;;;;;5011461;28;20363;-64
2022/05/21 11:07:41;;;;;;;4.45;0.52;;;;;;;;;;4993811;28;20415;-64
2022/05/21 11:10:24;;;;;;;1.52;0.60;;;;;;;;;;5010695;28;20321;-64
2022/05/21 11:12:53;;;;;;;2.63;0.40;;;;;;;;;;4993962;28;20317;-64
2022/05/21 11:15:43;;;;;;;1.60;0.50;;;;;;;;;;5011846;28;20029;-65
2022/05/21 11:18:14;;;;;;;0.20;0.20;;;;;;;;;;5011509;28;20455;-64
2022/05/21 11:21:00;;;;;;;3.15;0.20;;;;;;;;;;5011368;28;20032;-64
2022/05/21 11:23:33;;;;;;;0.25;0.20;;;;;;;;;;4993776;28;20428;-65
2022/05/21 11:26:05;;;;;;;0.30;0.20;;;;;;;;;;5010886;28;20086;-64
2022/05/21 11:28:40;;;;;;;0.60;0.30;;;;;;;;;;5011047;28;20371;-64
2022/05/21 11:39:44;;;;;;;3.53;0.52;;;;;;;;;;4995826;28;20051;-68
2022/05/21 11:42:14;;;;;;;1.75;0.60;;;;;;;;;;5011102;28;20028;-64
2022/05/21 11:44:58;;;;;;;1.05;0.52;;;;;;;;;;4993535;28;20428;-65
2022/05/21 11:47:26;;;;;;;1.95;0.73;;;;;;;;;;5010888;28;20132;-64
2022/05/21 11:49:51;;;;;;;0.50;0.50;;;;;;;;;;5010451;28;20359;-63
2022/05/21 11:52:26;;;;;;;4.60;0.52;;;;;;;;;;5011900;28;20040;-64
2022/05/21 11:54:54;;;;;;;0.60;0.50;;;;;;;;;;5010512;28;20324;-64
2022/05/21 11:57:28;;;;;;;0.80;0.55;;;;;;;;;;5011133;28;20079;-65
2022/05/21 11:59:54;;;;;;;1.20;0.55;;;;;;;;;;5011409;28;20478;-66
2022/05/21 12:02:22;;;;;;;1.52;0.50;;;;;;;;;;5011020;28;20455;-64
2022/05/21 12:04:51;;;;;;;1.13;0.45;;;;;;;;;;5010624;28;20352;-65
2022/05/21 12:07:46;;;;;;;1.42;0.60;;;;;;;;;;4991983;28;20309;-64
2022/05/21 12:10:33;;;;;;;1.02;0.63;;;;;;;;;;5010128;28;20536;-65
2022/05/21 12:13:12;;;;;;;2.28;0.80;;;;;;;;;;4992861;28;20496;-65
2022/05/21 12:15:41;;;;;;;0.40;0.32;;;;;;;;;;5011498;28;20436;-64
2022/05/21 12:18:30;;;;;;;3.13;0.68;;;;;;;;;;5010527;28;20394;-64
2022/05/21 12:20:55;;;;;;;;;;;;;;;;;;5010741;28;20375;-65
2022/05/21 12:23:29;;;;;;;1.50;0.40;;;;;;;;;;5009726;28;20239;-64
2022/05/21 12:26:00;;;;;;;0.57;0.38;;;;;;;;;;5010236;28;20689;-64
2022/05/21 12:29:09;;;;;;;2.40;0.52;;;;;;;;;;5010122;28;20509;-65
2022/05/21 12:31:41;;;;;;;3.10;0.85;;;;;;;;;;5003278;28;20344;-64
2022/05/21 12:34:12;;;;;;;1.13;0.55;;;;;;;;;;5009747;28;20576;-65
2022/05/21 12:36:46;;;;;;;1.42;0.47;;;;;;;;;;5010263;28;20495;-65
2022/05/21 12:39:15;;;;;;;0.20;0.20;;;;;;;;;;4991806;28;20458;-64
2022/05/21 12:41:44;;;;;;;3.60;0.80;;;;;;;;;;5009775;28;20021;-65
2022/05/21 12:44:11;;;;;;;0.63;0.45;;;;;;;;;;4992146;28;20083;-65
2022/05/21 12:46:38;;;;;;;0.95;0.50;;;;;;;;;;5009735;28;20389;-64
2022/05/21 12:49:08;;;;;;;0.90;0.40;;;;;;;;;;5010952;28;20047;-65
2022/05/21 12:51:37;;;;;;;;;;;;;;;;;;5010716;28;20467;-64
2022/05/21 12:54:05;;;;;;;1.27;0.50;;;;;;;;;;5008255;28;20326;-64
2022/05/21 12:56:35;;;;;;;1.73;0.50;;;;;;;;;;5009612;28;20024;-65
2022/05/21 12:59:10;;;;;;;0.73;0.40;;;;;;;;;;5009686;28;20484;-64
2022/05/21 13:01:46;;;;;;;0.93;0.50;;;;;;;;;;5009353;28;20392;-65
2022/05/21 13:04:21;;;;;;;0.57;0.43;;;;;;;;;;5009375;28;20382;-64
2022/05/21 13:06:52;;;;;;;1.05;0.50;;;;;;;;;;5008932;28;20462;-65
2022/05/21 13:09:17;;;;;;;1.55;0.65;;;;;;;;;;5008919;28;20379;-64
2022/05/21 13:11:43;;;;;;;2.97;1.20;;;;;;;;;;5009225;28;20348;-64
2022/05/21 13:14:11;;;;;;;2.42;1.30;;;;;;;;;;4991167;28;20557;-65
2022/05/21 13:17:06;;;;;;;1.50;0.83;;;;;;;;;;4991571;28;20033;-65
2022/05/21 13:19:38;;;;;;;1.45;0.93;;;;;;;;;;5004340;28;20370;-64
2022/05/21 13:22:23;;;;;;;1.95;1.05;;;;;;;;;;5009879;28;20338;-69
2022/05/21 13:24:57;;;;;;;2.05;1.45;;;;;;;;;;4991468;28;20431;-64
2022/05/21 13:27:23;;;;;;;2.20;0.85;;;;;;;;;;4991128;28;20140;-65
2022/05/21 13:29:50;;;;;;;2.20;1.30;;;;;;;;;;5009052;28;20436;-65
2022/05/21 13:32:28;;;;;;;2.28;1.35;;;;;;;;;;5009013;28;20432;-64
2022/05/21 13:34:59;;;;;;;1.50;1.20;;;;;;;;;;5010520;28;20423;-65
2022/05/21 13:37:31;;;;;;;1.75;1.05;;;;;;;;;;5008934;28;20040;-65
2022/05/21 13:40:12;;;;;;;2.95;1.80;;;;;;;;;;5009053;28;20309;-64
2022/05/21 13:42:40;;;;;;;2.95;1.77;;;;;;;;;;4991711;28;20028;-64
2022/05/21 13:45:11;;;;;;;1.85;1.45;;;;;;;;;;5008510;28;20028;-65
2022/05/21 13:47:45;;;;;;;3.80;1.60;;;;;;;;;;4990571;28;20347;-65
2022/05/21 13:50:11;;;;;;;3.92;1.90;;;;;;;;;;4990943;28;20329;-65
2022/05/21 13:52:37;;;;;;;3.38;2.05;;;;;;;;;;5008613;28;20059;-64
2022/05/21 13:55:07;;;;;;;5.15;2.30;;;;;;;;;;4991735;28;20486;-64
2022/05/21 13:57:34;;;;;;;2.65;1.80;;;;;;;;;;4990655;28;20362;-64
2022/05/21 14:00:29;;;;;;;9.82;2.38;;;;;;;;;;4991934;28;20373;-65
2022/05/21 14:02:55;;;;;;;6.32;2.35;;;;;;;;;;5007692;28;20362;-65
2022/05/21 14:05:49;;;;;;;4.18;2.72;;;;;;;;;;5008141;28;20374;-65
2022/05/21 14:08:19;;;;;;;5.88;2.60;;;;;;;;;;5008670;28;20558;-65
2022/05/21 14:10:47;;;;;;;3.08;2.17;;;;;;;;;;4984849;28;20481;-64
2022/05/21 14:13:33;;;;;;;3.88;2.47;;;;;;;;;;4968053;28;20333;-66
2022/05/21 14:16:01;;;;;;;5.35;2.58;;;;;;;;;;4970466;28;20433;-65
2022/05/21 14:18:33;;;;;;;3.25;2.30;;;;;;;;;;4970844;28;20380;-65
2022/05/21 14:21:02;;;;;;;5.40;2.42;;;;;;;;;;4969588;28;20411;-65
2022/05/21 14:23:34;;;;;;;3.08;2.05;;;;;;;;;;4967332;28;20416;-66
2022/05/21 14:26:33;;;;;;;2.75;2.13;;;;;;;;;;4969281;28;20423;-64
2022/05/21 14:29:00;;;;;;;;;;;;;;;;;;4970333;28;20366;-64
2022/05/21 14:31:36;;;;;;;3.05;1.95;;;;;;;;;;4971778;28;20299;-65
2022/05/21 14:34:13;;;;;;;3.08;2.13;;;;;;;;;;4972756;28;20053;-65
2022/05/21 14:36:41;;;;;;;3.38;2.25;;;;;;;;;;4973042;28;20419;-65
2022/05/21 14:39:07;;;;;;;2.72;2.00;;;;;;;;;;4972588;28;20467;-65
2022/05/21 14:41:37;;;;;;;4.90;1.83;;;;;;;;;;4973210;28;20317;-65
2022/05/21 14:44:04;;;;;;;5.78;1.98;;;;;;;;;;4973425;28;20460;-65
2022/05/21 14:49:14;;;;;;;3.45;1.90;;;;;;;;;;4972379;28;20460;-64
2022/05/21 14:54:39;;;;;;;2.97;1.73;;;;;;;;;;4972012;28;20463;-65
2022/05/21 14:57:05;;;;;;;2.17;1.70;;;;;;;;;;4972193;28;20401;-65
2022/05/21 14:59:30;;;;;;;2.85;2.17;;;;;;;;;;4972134;28;20341;-64
2022/05/21 15:01:56;;;;;;;3.95;1.90;;;;;;;;;;4973357;28;20310;-64
2022/05/21 15:04:21;;;;;;;2.72;1.70;;;;;;;;;;4972327;28;20025;-63
2022/05/21 15:06:47;;;;;;;3.53;1.80;;;;;;;;;;4972114;28;20619;-64
2022/05/21 15:09:13;;;;;;;3.88;2.00;;;;;;;;;;4984159;28;20363;-65
2022/05/21 15:11:38;;;;;;;2.78;1.90;;;;;;;;;;5011405;28;20487;-65
2022/05/21 15:14:03;;;;;;;3.10;2.35;;;;;;;;;;5011571;28;20378;-65
2022/05/21 15:16:29;;;;;;;2.97;1.85;;;;;;;;;;5010939;28;20416;-65
2022/05/21 15:18:54;;;;;;;3.63;1.73;;;;;;;;;;5011543;28;20375;-64
2022/05/21 15:21:22;;;;;;;2.28;1.50;;;;;;;;;;5011363;28;20398;-65
2022/05/21 15:23:48;;;;;;;3.53;1.65;;;;;;;;;;4993369;28;20355;-64
2022/05/21 15:26:13;;;;;;;2.70;1.70;;;;;;;;;;4993597;28;20345;-64
2022/05/21 15:28:39;;;;;;;2.60;1.70;;;;;;;;;;5010828;28;20351;-65
2022/05/21 15:31:08;;;;;;;2.63;1.50;;;;;;;;;;4993108;28;20439;-64
2022/05/21 15:33:33;;;;;;;2.90;1.80;;;;;;;;;;5012361;28;20455;-64
2022/05/21 15:35:59;;;;;;;3.25;1.50;;;;;;;;;;5011003;28;20443;-64
2022/05/21 15:38:25;;;;;;;2.58;1.50;;;;;;;;;;5011375;28;20483;-64
2022/05/21 15:40:51;;;;;;;6.82;2.22;;;;;;;;;;5011237;28;20441;-63